^^
Lisbon, NH - Weather Station Historical Data
Daily Summary for July 26, 2021 Units:  English    Metric   Both
Daily Weekly Monthly Yearly
  High: Low: Average:
Temperature: 80.8 °F 65.5 °F 71.8 °F
Dew Point: 72.9 °F 65.5 °F 68 °F
Humidity: 100% 62.2% 89%
Wind Speed: 3.5mph 0mph 0.4mph
Wind Gust: 8mph - -
Wind- - SSW
Pressure: 29.83 in 29.76 in -
Precipitation: 0.01 in    
 
 
Tabular Data for July 26, 2021
Time Temperature Dew Point Pressure Wind Wind Speed Wind Gust Humidity Rainfall Rate (Hourly) solar
00:04 66.4 °F 66.4 °F 29.78 in Calm     100% 0.00 in 0 W/m2
00:09 66.3 °F 66.3 °F 29.78 in Calm     100% 0.00 in 0 W/m2
00:14 66.2 °F 66.2 °F 29.78 in Calm     100% 0.00 in 0 W/m2
00:19 66.1 °F 66.1 °F 29.78 in Calm     100% 0.00 in 0 W/m2
00:24 66 °F 66 °F 29.78 in Calm     100% 0.00 in 0 W/m2
00:29 65.9 °F 65.9 °F 29.79 in Calm     100% 0.00 in 0 W/m2
00:34 65.8 °F 65.8 °F 29.79 in Calm     100% 0.00 in 0 W/m2
00:39 65.6 °F 65.6 °F 29.79 in Calm     100% 0.00 in 0 W/m2
00:44 65.5 °F 65.5 °F 29.79 in Calm     100% 0.00 in 0 W/m2
00:49 65.5 °F 65.5 °F 29.79 in Calm     100% 0.00 in 0 W/m2
00:54 65.5 °F 65.5 °F 29.79 in Calm     100% 0.00 in 0 W/m2
00:59 65.5 °F 65.5 °F 29.79 in Calm     100% 0.00 in 0 W/m2
01:04 65.5 °F 65.5 °F 29.79 in Calm     100% 0.00 in 0 W/m2
01:09 65.5 °F 65.5 °F 29.79 in Calm     100% 0.00 in 0 W/m2
01:14 65.5 °F 65.5 °F 29.79 in Calm     100% 0.00 in 0 W/m2
01:19 65.5 °F 65.5 °F 29.79 in Calm     100% 0.00 in 0 W/m2
01:24 65.5 °F 65.5 °F 29.79 in Calm     100% 0.00 in 0 W/m2
01:29 65.5 °F 65.5 °F 29.79 in Calm     100% 0.00 in 0 W/m2
01:34 65.5 °F 65.5 °F 29.79 in SSW 0.3 mph 2 mph 100% 0.00 in 0 W/m2
01:39 65.5 °F 65.5 °F 29.79 in Calm   1 mph 100% 0.00 in 0 W/m2
01:44 65.6 °F 65.6 °F 29.80 in South 0.1 mph 1 mph 100% 0.00 in 0 W/m2
01:49 65.6 °F 65.6 °F 29.80 in Calm     100% 0.00 in 0 W/m2
01:54 65.6 °F 65.6 °F 29.80 in Calm     100% 0.00 in 0 W/m2
01:59 65.6 °F 65.6 °F 29.80 in Calm     100% 0.00 in 0 W/m2
02:04 65.5 °F 65.5 °F 29.80 in SE 0.1 mph 1 mph 100% 0.00 in 0 W/m2
02:09 65.5 °F 65.5 °F 29.80 in Calm     100% 0.00 in 0 W/m2
02:14 65.5 °F 65.5 °F 29.80 in Calm   1 mph 100% 0.00 in 0 W/m2
02:19 65.5 °F 65.5 °F 29.80 in Calm     100% 0.00 in 0 W/m2
02:24 65.6 °F 65.6 °F 29.80 in Calm     100% 0.00 in 0 W/m2
02:29 65.8 °F 65.8 °F 29.80 in SE 0.3 mph 1 mph 100% 0.00 in 0 W/m2
02:34 65.7 °F 65.7 °F 29.80 in Calm   1 mph 100% 0.00 in 0 W/m2
02:39 65.6 °F 65.6 °F 29.80 in Calm     100% 0.00 in 0 W/m2
02:44 65.6 °F 65.6 °F 29.80 in Calm     100% 0.00 in 0 W/m2
02:49 65.7 °F 65.7 °F 29.79 in SE 0.1 mph 1 mph 100% 0.00 in 0 W/m2
02:54 65.8 °F 65.8 °F 29.79 in Calm     100% 0.00 in 0 W/m2
02:59 65.8 °F 65.8 °F 29.79 in Calm     100% 0.00 in 0 W/m2
03:04 65.8 °F 65.8 °F 29.79 in South 0.8 mph 2 mph 100% 0.00 in 0 W/m2
03:09 65.7 °F 65.7 °F 29.79 in SW 0.8 mph 2 mph 100% 0.00 in 0 W/m2
03:14 65.6 °F 65.6 °F 29.79 in Calm   1 mph 100% 0.00 in 0 W/m2
03:19 65.6 °F 65.6 °F 29.78 in Calm     100% 0.00 in 0 W/m2
03:24 65.6 °F 65.6 °F 29.78 in Calm     100% 0.00 in 0 W/m2
03:29 65.6 °F 65.6 °F 29.78 in Calm     100% 0.00 in 0 W/m2
03:34 65.8 °F 65.8 °F 29.78 in SSW 0.6 mph 2 mph 100% 0.00 in 0 W/m2
03:39 66 °F 66 °F 29.78 in South 0.1 mph 1 mph 100% 0.00 in 0 W/m2
03:44 66 °F 66 °F 29.79 in Calm     100% 0.00 in 0 W/m2
03:49 66 °F 66 °F 29.79 in Calm     100% 0.00 in 0 W/m2
03:54 66 °F 66 °F 29.79 in South 0.6 mph 2 mph 100% 0.00 in 0 W/m2
03:59 66 °F 66 °F 29.79 in SW 0.7 mph 2 mph 100% 0.00 in 0 W/m2
04:04 66 °F 66 °F 29.79 in Calm   2 mph 100% 0.00 in 0 W/m2
04:09 66 °F 66 °F 29.79 in Calm     100% 0.00 in 0 W/m2
04:14 66 °F 66 °F 29.79 in Calm     100% 0.00 in 0 W/m2
04:19 66 °F 66 °F 29.79 in Calm     100% 0.00 in 0 W/m2
04:24 66 °F 66 °F 29.79 in Calm     100% 0.00 in 0 W/m2
04:29 66 °F 66 °F 29.79 in Calm     100% 0.00 in 0 W/m2
04:34 66.1 °F 66.1 °F 29.79 in Calm     100% 0.00 in 0 W/m2
04:39 66.1 °F 66.1 °F 29.79 in Calm     100% 0.00 in 0 W/m2
04:44 66.1 °F 66.1 °F 29.79 in Calm     100% 0.00 in 0 W/m2
04:49 66.2 °F 66.2 °F 29.79 in Calm     100% 0.00 in 0 W/m2
04:54 66.3 °F 66.3 °F 29.79 in Calm     100% 0.00 in 0 W/m2
04:59 66.3 °F 66.3 °F 29.79 in Calm     100% 0.00 in 0 W/m2
05:04 66.3 °F 66.3 °F 29.79 in Calm     100% 0.00 in 0 W/m2
05:09 66.3 °F 66.3 °F 29.79 in Calm     100% 0.00 in 0 W/m2
05:14 66.3 °F 66.3 °F 29.79 in Calm     100% 0.00 in 0 W/m2
05:19 66.4 °F 66.4 °F 29.78 in Calm   1 mph 100% 0.00 in 0 W/m2
05:24 66.4 °F 66.4 °F 29.78 in Calm     100% 0.00 in 0 W/m2
05:29 66.4 °F 66.4 °F 29.79 in Calm     100% 0.00 in 0 W/m2
05:34 66.4 °F 66.4 °F 29.79 in Calm     100% 0.00 in 5 W/m2
05:39 66.4 °F 66.4 °F 29.79 in Calm     100% 0.00 in 5 W/m2
05:44 66.4 °F 66.4 °F 29.79 in Calm   1 mph 100% 0.00 in 7 W/m2
05:49 66.4 °F 66.4 °F 29.78 in SW 0.1 mph 1 mph 100% 0.00 in 9 W/m2
05:54 66.4 °F 66.4 °F 29.78 in SW 0.4 mph 2 mph 100% 0.00 in 12 W/m2
05:59 66.4 °F 66.4 °F 29.78 in SW 0.1 mph 2 mph 100% 0.00 in 14 W/m2
06:04 66.4 °F 66.4 °F 29.78 in Calm     100% 0.00 in 25 W/m2
06:09 66.4 °F 66.4 °F 29.78 in Calm     100% 0.00 in 28 W/m2
06:14 66.4 °F 66.4 °F 29.79 in Calm   1 mph 100% 0.00 in 35 W/m2
06:19 66.5 °F 66.5 °F 29.79 in SSW 1.1 mph 5 mph 100% 0.00 in 39 W/m2
06:24 66.6 °F 66.6 °F 29.79 in SW 0.4 mph 3 mph 100% 0.00 in 48 W/m2
06:29 66.6 °F 66.6 °F 29.79 in SW 0.2 mph 3 mph 100% 0.00 in 48 W/m2
06:34 66.8 °F 66.8 °F 29.79 in SW 0.3 mph 3 mph 100% 0.00 in 63 W/m2
06:39 66.8 °F 66.8 °F 29.79 in SW 0.1 mph 1 mph 100% 0.00 in 65 W/m2
06:44 66.9 °F 66.9 °F 29.79 in SW 0.5 mph 2 mph 100% 0.00 in 88 W/m2
06:49 66.9 °F 66.9 °F 29.79 in SW 0.3 mph 1 mph 100% 0.01 in 127 W/m2
06:54 66.9 °F 66.9 °F 29.79 in SW 0.1 mph 1 mph 100% 0.01 in 135 W/m2
06:59 67.1 °F 67.1 °F 29.79 in SSW 0.2 mph 2 mph 100% 0.01 in 150 W/m2
07:04 67.2 °F 67.2 °F 29.79 in SW 0.8 mph 3 mph 100% 0.01 in 150 W/m2
07:09 67.3 °F 67.3 °F 29.79 in SW 1 mph 3 mph 100% 0.01 in 143 W/m2
07:14 67.3 °F 67.3 °F 29.79 in SW 0.5 mph 3 mph 100% 0.01 in 158 W/m2
07:19 67.4 °F 67.4 °F 29.79 in SW 0.5 mph 3 mph 100% 0.01 in 169 W/m2
07:24 67.6 °F 67.6 °F 29.79 in SW 0.2 mph 2 mph 100% 0.01 in 144 W/m2
07:29 67.8 °F 67.8 °F 29.79 in SW 0.2 mph 2 mph 100% 0.01 in 121 W/m2
07:34 67.8 °F 67.8 °F 29.79 in WSW 0.3 mph 4 mph 100% 0.01 in 128 W/m2
07:39 67.8 °F 67.8 °F 29.79 in SW 0.2 mph 1 mph 100% 0.01 in 160 W/m2
07:44 67.9 °F 67.9 °F 29.80 in Calm     100% 0.01 in 174 W/m2
07:49 68.2 °F 68.2 °F 29.80 in SW 0.2 mph 1 mph 100% 0.01 in 172 W/m2
07:54 68.4 °F 68.4 °F 29.80 in SSW 0.6 mph 6 mph 100% 0.01 in 183 W/m2
07:59 68.4 °F 68.4 °F 29.80 in SSW 0.9 mph 6 mph 100% 0.00 in 190 W/m2
08:04 68.3 °F 68.3 °F 29.80 in ESE 0.6 mph 5 mph 100% 0.00 in 162 W/m2
08:09 68.4 °F 68.4 °F 29.80 in ENE 2.2 mph 5 mph 100% 0.00 in 120 W/m2
08:14 68.4 °F 68.4 °F 29.81 in ENE 2.3 mph 5 mph 100% 0.00 in 109 W/m2
08:19 68.3 °F 68.3 °F 29.81 in ENE 1.7 mph 5 mph 100% 0.00 in 113 W/m2
08:24 68.3 °F 68.3 °F 29.81 in ENE 0.4 mph 2 mph 100% 0.00 in 114 W/m2
08:29 68.4 °F 68.4 °F 29.81 in Calm   1 mph 100% 0.00 in 162 W/m2
08:34 68.4 °F 68.4 °F 29.81 in SE 0.5 mph 1 mph 100% 0.00 in 181 W/m2
08:39 68.4 °F 68.4 °F 29.81 in SE 0.1 mph 1 mph 100% 0.00 in 238 W/m2
08:44 68.7 °F 68.7 °F 29.81 in SE 0.5 mph 2 mph 100% 0.00 in 257 W/m2
08:49 69.1 °F 69.1 °F 29.81 in SE 0.1 mph 1 mph 100% 0.00 in 282 W/m2
08:54 69.4 °F 69.4 °F 29.81 in SSW 1.1 mph 3 mph 100% 0.00 in 289 W/m2
08:59 69.5 °F 69.5 °F 29.81 in SSW 1.1 mph 5 mph 100% 0.00 in 299 W/m2
09:04 69.4 °F 69.4 °F 29.81 in South 0.9 mph 3 mph 100% 0.00 in 322 W/m2
09:09 69.7 °F 69.7 °F 29.81 in South 0.7 mph 3 mph 100% 0.00 in 304 W/m2
09:14 70 °F 70 °F 29.81 in SSW 0.9 mph 3 mph 100% 0.00 in 341 W/m2
09:19 70.1 °F 70.1 °F 29.81 in SSW 1.8 mph 5 mph 100% 0.00 in 373 W/m2
09:24 70.4 °F 70.4 °F 29.81 in SSW 0.3 mph 2 mph 100% 0.00 in 382 W/m2
09:29 71 °F 71 °F 29.81 in Calm   1 mph 100% 0.00 in 394 W/m2
09:34 71.7 °F 71.7 °F 29.81 in SW 0.2 mph 2 mph 100% 0.00 in 394 W/m2
09:39 72 °F 71.7 °F 29.81 in SW 0.1 mph 2 mph 99.1% 0.00 in 435 W/m2
09:44 72.4 °F 71.5 °F 29.81 in SSW 0.2 mph 1 mph 97% 0.00 in 454 W/m2
09:49 72.5 °F 70.8 °F 29.81 in SSW 1.1 mph 3 mph 94.4% 0.00 in 447 W/m2
09:54 72 °F 69.4 °F 29.81 in SSW 2.3 mph 5 mph 91.6% 0.00 in 454 W/m2
09:59 71.9 °F 69.1 °F 29.81 in SSW 1.4 mph 5 mph 90.7% 0.00 in 459 W/m2
10:04 72.5 °F 69.5 °F 29.81 in SSW 1.2 mph 3 mph 90.3% 0.00 in 466 W/m2
10:09 72.7 °F 68.8 °F 29.81 in SSW 1.6 mph 3 mph 87.5% 0.00 in 473 W/m2
10:14 72.8 °F 68.8 °F 29.81 in SSW 1.2 mph 3 mph 87% 0.00 in 480 W/m2
10:19 73.2 °F 69 °F 29.81 in SSW 0.5 mph 2 mph 86.6% 0.00 in 500 W/m2
10:24 73.6 °F 69 °F 29.81 in South 1 mph 3 mph 85.4% 0.00 in 510 W/m2
10:29 73.9 °F 68.9 °F 29.81 in SSW 1.2 mph 5 mph 84.4% 0.00 in 514 W/m2
10:34 74.1 °F 68.7 °F 29.81 in South 0.5 mph 2 mph 83.4% 0.00 in 524 W/m2
10:39 74.6 °F 69 °F 29.81 in SSW 0.7 mph 3 mph 82.7% 0.00 in 533 W/m2
10:44 74.9 °F 68.9 °F 29.81 in SSW 0.9 mph 4 mph 81.5% 0.00 in 533 W/m2
10:49 75.1 °F 68.8 °F 29.81 in SSW 1.1 mph 4 mph 80.6% 0.00 in 535 W/m2
10:54 75.2 °F 68.5 °F 29.81 in SSW 1.7 mph 5 mph 79.6% 0.00 in 547 W/m2
10:59 75.2 °F 68.3 °F 29.81 in South 0.5 mph 2 mph 79.2% 0.00 in 558 W/m2
11:04 75.7 °F 69.2 °F 29.81 in SSW 0.7 mph 3 mph 80.3% 0.00 in 558 W/m2
11:09 76 °F 69 °F 29.81 in SSW 1.3 mph 6 mph 78.7% 0.00 in 547 W/m2
11:14 76.1 °F 68.5 °F 29.81 in SSE 1 mph 6 mph 77.4% 0.00 in 498 W/m2
11:19 76.3 °F 69 °F 29.81 in SSW 0.6 mph 3 mph 78.1% 0.00 in 547 W/m2
11:24 76.5 °F 69.4 °F 29.81 in SSW 0.6 mph 3 mph 78.6% 0.00 in 547 W/m2
11:29 76.8 °F 69.5 °F 29.81 in SW 1.2 mph 4 mph 78.4% 0.00 in 544 W/m2
11:34 76.9 °F 68.9 °F 29.81 in SSW 0.1 mph 4 mph 76.5% 0.00 in 561 W/m2
11:39 77.1 °F 68.9 °F 29.81 in SW 1 mph 5 mph 75.9% 0.00 in 537 W/m2
11:44 77.3 °F 68.9 °F 29.81 in Calm   1 mph 75.4% 0.00 in 565 W/m2
11:49 77.6 °F 69.7 °F 29.81 in SSW 1.9 mph 7 mph 76.6% 0.00 in 596 W/m2
11:54 77.6 °F 68.7 °F 29.81 in SSW 2.1 mph 5 mph 74% 0.00 in 596 W/m2
11:59 77.5 °F 68.9 °F 29.81 in South 0.2 mph 2 mph 74.8% 0.00 in 428 W/m2
12:04 77.5 °F 68.4 °F 29.81 in SE 0.3 mph 2 mph 73.6% 0.00 in 575 W/m2
12:09 77.6 °F 68.5 °F 29.81 in SSW 0.1 mph 1 mph 73.5% 0.00 in 489 W/m2
12:14 78 °F 69.5 °F 29.81 in SE 0.3 mph 1 mph 74.9% 0.00 in 206 W/m2
12:19 78 °F 69 °F 29.80 in WSW 0.1 mph 1 mph 73.8% 0.00 in 250 W/m2
12:24 77.8 °F 69.1 °F 29.80 in Calm   1 mph 74.6% 0.00 in 273 W/m2
12:29 77.7 °F 69 °F 29.80 in SW 0.1 mph 1 mph 74.7% 0.00 in 649 W/m2
12:34 77.6 °F 68.1 °F 29.80 in SE 0.6 mph 2 mph 72.5% 0.00 in 688 W/m2
12:39 77.7 °F 67.5 °F 29.80 in South 1.4 mph 3 mph 70.8% 0.00 in 720 W/m2
12:44 78.2 °F 67.7 °F 29.80 in East 0.6 mph 2 mph 70.1% 0.00 in 748 W/m2
12:49 78.6 °F 67.8 °F 29.80 in ENE 1.4 mph 4 mph 69.3% 0.00 in 713 W/m2
12:54 79 °F 68.3 °F 29.80 in SE 1.3 mph 3 mph 69.8% 0.00 in 734 W/m2
12:59 79 °F 68.1 °F 29.80 in SE 1.3 mph 3 mph 69.3% 0.00 in 723 W/m2
13:04 78.9 °F 67.6 °F 29.80 in SSW 1.7 mph 5 mph 68.2% 0.00 in 723 W/m2
13:09 78.8 °F 67.5 °F 29.80 in South 0.4 mph 3 mph 68.3% 0.00 in 771 W/m2
13:14 79.5 °F 68.8 °F 29.80 in SSW 2 mph 6 mph 70% 0.00 in 758 W/m2
13:19 79.6 °F 68.5 °F 29.80 in SW 1.5 mph 6 mph 69% 0.00 in 741 W/m2
13:24 79.7 °F 69.2 °F 29.80 in SW 0.8 mph 4 mph 70.1% 0.00 in 686 W/m2
13:29 79.8 °F 68.7 °F 29.80 in SSW 1.1 mph 5 mph 68.9% 0.00 in 494 W/m2
13:34 79.5 °F 67.8 °F 29.80 in SSW 1.2 mph 3 mph 67.6% 0.00 in 730 W/m2
13:39 79.6 °F 68.1 °F 29.80 in South 1.4 mph 5 mph 67.9% 0.00 in 707 W/m2
13:44 79.5 °F 67.5 °F 29.80 in SSW 0.9 mph 5 mph 66.7% 0.00 in 700 W/m2
13:49 79.8 °F 67.9 °F 29.79 in SW 1.8 mph 6 mph 67.1% 0.00 in 711 W/m2
13:54 79.9 °F 66.8 °F 29.79 in SSW 1.8 mph 5 mph 64.4% 0.00 in 700 W/m2
13:59 79.9 °F 66.8 °F 29.80 in ESE 0.6 mph 3 mph 64.3% 0.00 in 290 W/m2
14:04 79.9 °F 67.8 °F 29.80 in SSW 0.6 mph 3 mph 66.5% 0.00 in 589 W/m2
14:09 79.9 °F 67.3 °F 29.80 in SSW 1.8 mph 3 mph 65.3% 0.00 in 589 W/m2
14:14 80 °F 67.1 °F 29.80 in SSW 1.4 mph 5 mph 64.9% 0.00 in 604 W/m2
14:19 80 °F 67.2 °F 29.79 in SSW 1.9 mph 5 mph 64.9% 0.00 in 596 W/m2
14:24 80.1 °F 66.5 °F 29.79 in SSW 0.9 mph 3 mph 63.3% 0.00 in 611 W/m2
14:29 80.2 °F 66.7 °F 29.79 in SSW 1.2 mph 6 mph 63.5% 0.00 in 503 W/m2
14:34 80.4 °F 67.8 °F 29.79 in Calm   1 mph 65.5% 0.00 in 368 W/m2
14:39 80.6 °F 67.9 °F 29.79 in SSW 1 mph 5 mph 65.3% 0.00 in 412 W/m2
14:44 80.8 °F 68.4 °F 29.79 in SW 0.7 mph 5 mph 66% 0.00 in 438 W/m2
14:49 80.7 °F 67.4 °F 29.79 in West 0.4 mph 2 mph 64% 0.00 in 398 W/m2
14:54 80.5 °F 67.8 °F 29.79 in WSW 0.6 mph 5 mph 65.4% 0.00 in 354 W/m2
14:59 80.4 °F 67.7 °F 29.79 in SSW 1.4 mph 6 mph 65.2% 0.00 in 292 W/m2
15:04 80.5 °F 66.9 °F 29.79 in SW 1.9 mph 7 mph 63.2% 0.00 in 301 W/m2
15:09 80.3 °F 66.8 °F 29.79 in SW 3.1 mph 7 mph 63.3% 0.00 in 294 W/m2
15:14 80.2 °F 66.1 °F 29.79 in SW 3.5 mph 8 mph 62.2% 0.00 in 294 W/m2
15:19 79.9 °F 65.9 °F 29.78 in SW 1.9 mph 7 mph 62.5% 0.00 in 296 W/m2
15:24 79.8 °F 66.6 °F 29.78 in SW 1 mph 4 mph 64.2% 0.00 in 274 W/m2
15:29 79.9 °F 67.3 °F 29.78 in SW 2.4 mph 6 mph 65.5% 0.00 in 245 W/m2
15:34 79.8 °F 66.9 °F 29.78 in SW 1.6 mph 6 mph 64.8% 0.00 in 236 W/m2
15:39 79.9 °F 67.4 °F 29.78 in SSW 1.6 mph 5 mph 65.7% 0.00 in 255 W/m2
15:44 80 °F 67.2 °F 29.78 in SW 1.1 mph 3 mph 65% 0.00 in 215 W/m2
15:49 80.1 °F 67.4 °F 29.78 in SSW 1.7 mph 5 mph 65.2% 0.00 in 227 W/m2
15:54 80.1 °F 67.2 °F 29.78 in SSW 0.5 mph 5 mph 64.9% 0.00 in 215 W/m2
15:59 80.1 °F 67.3 °F 29.78 in SW 2.3 mph 7 mph 65% 0.00 in 188 W/m2
16:04 80.1 °F 66.8 °F 29.78 in SW 1.7 mph 6 mph 64% 0.00 in 201 W/m2
16:09 80 °F 67.3 °F 29.78 in SW 1 mph 6 mph 65.4% 0.00 in 171 W/m2
16:14 79.8 °F 67.6 °F 29.78 in SSW 1.3 mph 6 mph 66.5% 0.00 in 144 W/m2
16:19 79.5 °F 67.6 °F 29.78 in WSW 0.5 mph 3 mph 67% 0.00 in 134 W/m2
16:24 79.2 °F 67.3 °F 29.78 in Calm     67% 0.00 in 116 W/m2
16:29 79 °F 67 °F 29.78 in Calm     66.8% 0.00 in 114 W/m2
16:34 79 °F 69.5 °F 29.78 in Calm     72.8% 0.00 in 130 W/m2
16:39 78.9 °F 70.7 °F 29.78 in Calm     76.1% 0.00 in 111 W/m2
16:44 78.7 °F 71 °F 29.78 in Calm     77.3% 0.00 in 144 W/m2
16:49 78.6 °F 71 °F 29.78 in Calm     77.6% 0.00 in 199 W/m2
16:54 78.4 °F 70.7 °F 29.78 in Calm     77.2% 0.00 in 225 W/m2
16:59 78.5 °F 69.8 °F 29.78 in WSW 0.4 mph 2 mph 74.7% 0.00 in 223 W/m2
17:04 78.6 °F 68.3 °F 29.78 in SW 0.8 mph 3 mph 70.9% 0.00 in 239 W/m2
17:09 78.7 °F 67.6 °F 29.78 in SSW 0.5 mph 3 mph 68.9% 0.00 in 197 W/m2
17:14 78.9 °F 68 °F 29.78 in SW 0.3 mph 3 mph 69.3% 0.00 in 169 W/m2
17:19 79.2 °F 69.3 °F 29.77 in Calm   1 mph 71.7% 0.00 in 139 W/m2
17:24 79.3 °F 69.7 °F 29.77 in Calm     72.3% 0.00 in 139 W/m2
17:29 79.4 °F 70.4 °F 29.77 in Calm     74% 0.00 in 113 W/m2
17:34 79.4 °F 71.3 °F 29.77 in Calm     76.4% 0.00 in 114 W/m2
17:39 79.4 °F 71.9 °F 29.77 in Calm     77.8% 0.00 in 109 W/m2
17:44 79.4 °F 72.4 °F 29.77 in Calm     79.3% 0.00 in 111 W/m2
17:49 79.4 °F 72.9 °F 29.77 in Calm   1 mph 80.6% 0.00 in 99 W/m2
17:54 79.1 °F 72.1 °F 29.77 in SW 0.1 mph 1 mph 79.1% 0.00 in 102 W/m2
17:59 78.8 °F 71.3 °F 29.77 in Calm     77.9% 0.00 in 90 W/m2
18:04 78.7 °F 72.1 °F 29.76 in Calm     80.3% 0.00 in 74 W/m2
18:09 78.5 °F 72.7 °F 29.76 in Calm     82.5% 0.00 in 95 W/m2
18:14 78.2 °F 72.9 °F 29.76 in Calm     83.8% 0.00 in 121 W/m2
18:19 77.9 °F 72.7 °F 29.76 in Calm     84% 0.00 in 116 W/m2
18:24 77.9 °F 72.7 °F 29.76 in Calm     84% 0.00 in 72 W/m2
18:29 77.6 °F 72.4 °F 29.76 in Calm     84% 0.00 in 63 W/m2
18:34 77.3 °F 72.2 °F 29.76 in Calm     84.4% 0.00 in 60 W/m2
18:39 76.9 °F 72.1 °F 29.76 in Calm     85.3% 0.00 in 58 W/m2
18:44 76.8 °F 72.3 °F 29.77 in Calm     86% 0.00 in 58 W/m2
18:49 76.7 °F 72.2 °F 29.77 in Calm     86% 0.00 in 55 W/m2
18:54 76.4 °F 71.7 °F 29.77 in Calm     85.5% 0.00 in 51 W/m2
18:59 76 °F 71.5 °F 29.77 in Calm     86.2% 0.00 in 48 W/m2
19:04 75.6 °F 71.5 °F 29.77 in Calm     87.2% 0.00 in 37 W/m2
19:09 75.3 °F 71.6 °F 29.77 in Calm     88.3% 0.00 in 23 W/m2
19:14 75 °F 71.6 °F 29.78 in Calm     89.2% 0.00 in 18 W/m2
19:19 74.7 °F 71.6 °F 29.78 in Calm     90% 0.00 in 16 W/m2
19:24 74.4 °F 71.4 °F 29.78 in Calm     90.4% 0.00 in 16 W/m2
19:29 74 °F 71.2 °F 29.78 in Calm     91% 0.00 in 16 W/m2
19:34 73.6 °F 71 °F 29.78 in Calm     91.5% 0.00 in 14 W/m2
19:39 73.3 °F 70.8 °F 29.78 in Calm     92% 0.00 in 14 W/m2
19:44 73 °F 70.7 °F 29.78 in Calm     92.3% 0.00 in 14 W/m2
19:49 72.7 °F 70.6 °F 29.78 in Calm     93% 0.00 in 16 W/m2
19:54 72.3 °F 70.2 °F 29.78 in Calm     93% 0.00 in 14 W/m2
19:59 72 °F 69.9 °F 29.79 in Calm     93% 0.00 in 12 W/m2
20:04 71.6 °F 69.4 °F 29.79 in Calm     93% 0.00 in 11 W/m2
20:09 71.3 °F 69.4 °F 29.79 in Calm     93.8% 0.00 in 7 W/m2
20:14 71 °F 69.2 °F 29.80 in Calm     94% 0.00 in 5 W/m2
20:19 70.9 °F 69.1 °F 29.80 in Calm     94% 0.00 in 0 W/m2
20:24 70.9 °F 69.1 °F 29.80 in Calm     94% 0.00 in 0 W/m2
20:29 70.9 °F 69.1 °F 29.80 in Calm     94% 0.00 in 0 W/m2
20:34 70.9 °F 69.2 °F 29.80 in Calm     94.4% 0.00 in 0 W/m2
20:39 70.8 °F 69.3 °F 29.80 in Calm     95% 0.00 in 0 W/m2
20:44 70.7 °F 69.2 °F 29.80 in Calm     95% 0.00 in 0 W/m2
20:49 70.6 °F 69.1 °F 29.79 in Calm     95.1% 0.00 in 0 W/m2
20:54 70.6 °F 69.2 °F 29.79 in Calm     95.4% 0.00 in 0 W/m2
20:59 70.4 °F 68.9 °F 29.80 in Calm     95% 0.00 in 0 W/m2
21:04 70.3 °F 68.9 °F 29.80 in Calm     95.2% 0.00 in 0 W/m2
21:09 70.1 °F 68.9 °F 29.80 in Calm     96% 0.00 in 0 W/m2
21:14 69.8 °F 68.7 °F 29.80 in Calm     96% 0.00 in 0 W/m2
21:19 69.6 °F 68.4 °F 29.80 in Calm     96% 0.00 in 0 W/m2
21:24 69.4 °F 68.2 °F 29.80 in Calm     96% 0.00 in 0 W/m2
21:29 69.3 °F 68.1 °F 29.80 in Calm     96% 0.00 in 0 W/m2
21:34 69.1 °F 68.2 °F 29.80 in Calm     96.9% 0.00 in 0 W/m2
21:39 69 °F 68.1 °F 29.80 in Calm     97% 0.00 in 0 W/m2
21:44 68.8 °F 67.9 °F 29.82 in Calm     97% 0.00 in 0 W/m2
21:49 68.6 °F 67.7 °F 29.82 in Calm     97% 0.00 in 0 W/m2
21:54 68.4 °F 67.5 °F 29.82 in Calm     97% 0.00 in 0 W/m2
21:59 68.2 °F 67.6 °F 29.82 in Calm     97.8% 0.00 in 0 W/m2
22:04 68.1 °F 67.5 °F 29.82 in Calm     98% 0.00 in 0 W/m2
22:09 68.1 °F 67.5 °F 29.82 in Calm     98% 0.00 in 0 W/m2
22:14 67.9 °F 67.3 °F 29.82 in Calm     98% 0.00 in 0 W/m2
22:19 67.9 °F 67.3 °F 29.82 in Calm     98% 0.00 in 0 W/m2
22:24 67.8 °F 67.4 °F 29.82 in Calm     98.5% 0.00 in 0 W/m2
22:29 67.6 °F 67.3 °F 29.83 in Calm     99% 0.00 in 0 W/m2
22:34 67.5 °F 67.2 °F 29.83 in WSW 0.3 mph 2 mph 99% 0.00 in 0 W/m2
22:39 67.5 °F 67.3 °F 29.83 in WSW 0.2 mph 2 mph 99.3% 0.00 in 0 W/m2
22:44 67.6 °F 67.6 °F 29.83 in SW 0.3 mph 2 mph 100% 0.00 in 0 W/m2
22:49 67.7 °F 67.7 °F 29.82 in SW 0.4 mph 2 mph 100% 0.00 in 0 W/m2
22:54 67.8 °F 67.8 °F 29.82 in SW 0.2 mph 2 mph 100% 0.00 in 0 W/m2
22:59 67.6 °F 67.6 °F 29.83 in SW 0.2 mph 1 mph 100% 0.00 in 0 W/m2
23:04 67.6 °F 67.6 °F 29.83 in ENE 1 mph 3 mph 100% 0.00 in 0 W/m2
23:09 67.6 °F 67.6 °F 29.83 in Calm   1 mph 100% 0.00 in 0 W/m2
23:14 67.4 °F 67.4 °F 29.83 in Calm     100% 0.00 in 0 W/m2
23:19 67.3 °F 67.3 °F 29.83 in Calm     100% 0.00 in 0 W/m2
23:24 67.2 °F 67.2 °F 29.83 in Calm     100% 0.00 in 0 W/m2
23:29 66.9 °F 66.9 °F 29.83 in Calm     100% 0.00 in 0 W/m2
23:34 66.8 °F 66.8 °F 29.83 in Calm     100% 0.00 in 0 W/m2
23:39 66.8 °F 66.8 °F 29.83 in Calm     100% 0.00 in 0 W/m2
23:44 66.6 °F 66.6 °F 29.83 in Calm     100% 0.00 in 0 W/m2
23:49 66.4 °F 66.4 °F 29.83 in Calm     100% 0.00 in 0 W/m2
23:54 66.4 °F 66.4 °F 29.83 in South 0.1 mph 1 mph 100% 0.00 in 0 W/m2
23:59 66.4 °F 66.4 °F 29.83 in Calm   1 mph 100% 0.00 in 0 W/m2
Lisbon, New Hampshire, USA
Compliments of Weather Underground - 4 mb